Hauptseite
METAR-TAF:

METAR-TAF

Flughäfen :

Zagreb, Kroatien

Flughafen Zagreb

Breite: 45-44N, Länge: 016-04E, Höhe: 106 m

Beobachtung

Neuester Wetterbericht von vor 9 Minuten, um 14:30 UTC
Wind 3 kt aus West/Südwest
Temperatur 16°C
Luftfeuchtigkeit 55%
Luftdruck 1018 hPa
Sichtweite 10 km oder mehr
keine Wolken unter 1500 m und keine Kumulonimbus oder Gewitterwolken

METAR: LDZA 241430Z 25003KT CAVOK 16/07 Q1018 NOSIG

Zeit: 15:39 (14:39 UTC)

Prognose

Neuester Wetterbericht von vor 3 Stunden und 14 Minuten, um 11:25 UTC
Gültige Prognose vom 24 um 12 UTC bis 25 um 12 UTC
Wind 6 kt aus Südwest
Sichtweite 10 km oder mehr
keine Wolken unter 1500 m und keine Kumulonimbus oder Gewitterwolken
Übergehend zu
vom 25 um 09 UTC bis 25 um 11 UTC
Wind 12 kt aus Südwest

TAF: LDZA 241125Z 2412/2512 23006KT CAVOK TX17/2511Z TN05/2506Z BECMG 2509/2511 23012KT

Wetterbeobachtungen und Prognosen von mehr als 4000 Flughäfen (METAR und TAF Bericht).

Die verfügbaren Stationen werden durch gelbe und rote Markierungen auf der Karte dargestellt.

Führen Sie die Maus auf sie, um den Namen der Station zu sehen.

Darauf klicken, um die Beobachtung von Wetterbeobachtungen und Prognosen zu sehen.

Um die Karte zu ändern : klicken Sie auf den grünen Tasten mit einem schwarzen Kreuz Zum Vergrößern, auf den grünen Button mit einem Gedankenstrich zu verkleinern, oder auf die grünen Pfeile für benachbarte Karten.


METAR-TAF: